sensor_id;sensor_type;location;lat;lon;timestamp;temperature;humidity
47168;DHT22;32931;47.778;17.806;2023-05-10T00:01:55;15.80;73.80
47168;DHT22;32931;47.778;17.806;2023-05-10T00:04:22;15.80;74.10
47168;DHT22;32931;47.778;17.806;2023-05-10T00:06:48;15.70;74.50
47168;DHT22;32931;47.778;17.806;2023-05-10T00:09:14;15.70;74.50
47168;DHT22;32931;47.778;17.806;2023-05-10T00:11:40;15.70;74.70
47168;DHT22;32931;47.778;17.806;2023-05-10T00:14:06;15.70;74.90
47168;DHT22;32931;47.778;17.806;2023-05-10T00:16:32;15.60;75.00
47168;DHT22;32931;47.778;17.806;2023-05-10T00:18:58;15.60;75.20
47168;DHT22;32931;47.778;17.806;2023-05-10T00:21:24;15.60;75.20
47168;DHT22;32931;47.778;17.806;2023-05-10T00:23:51;15.60;75.30
47168;DHT22;32931;47.778;17.806;2023-05-10T00:26:17;15.50;75.50
47168;DHT22;32931;47.778;17.806;2023-05-10T00:28:43;15.50;75.80
47168;DHT22;32931;47.778;17.806;2023-05-10T00:31:09;15.50;76.00
47168;DHT22;32931;47.778;17.806;2023-05-10T00:33:35;15.40;76.30
47168;DHT22;32931;47.778;17.806;2023-05-10T00:36:01;15.40;76.30
47168;DHT22;32931;47.778;17.806;2023-05-10T00:38:27;15.40;76.50
47168;DHT22;32931;47.778;17.806;2023-05-10T00:40:54;15.40;76.80
47168;DHT22;32931;47.778;17.806;2023-05-10T00:43:20;15.30;76.90
47168;DHT22;32931;47.778;17.806;2023-05-10T00:45:46;15.30;77.00
47168;DHT22;32931;47.778;17.806;2023-05-10T00:48:13;15.30;77.30
47168;DHT22;32931;47.778;17.806;2023-05-10T00:50:39;15.30;77.40
47168;DHT22;32931;47.778;17.806;2023-05-10T00:53:06;15.30;77.50
47168;DHT22;32931;47.778;17.806;2023-05-10T00:55:32;15.30;77.80
47168;DHT22;32931;47.778;17.806;2023-05-10T00:57:58;15.20;78.00
47168;DHT22;32931;47.778;17.806;2023-05-10T01:00:24;15.20;78.20
47168;DHT22;32931;47.778;17.806;2023-05-10T01:02:53;15.20;78.50
47168;DHT22;32931;47.778;17.806;2023-05-10T01:05:19;15.20;78.90
47168;DHT22;32931;47.778;17.806;2023-05-10T01:07:46;15.10;79.10
47168;DHT22;32931;47.778;17.806;2023-05-10T01:10:12;15.10;79.30
47168;DHT22;32931;47.778;17.806;2023-05-10T01:12:41;15.10;79.70
47168;DHT22;32931;47.778;17.806;2023-05-10T01:15:09;15.10;80.20
47168;DHT22;32931;47.778;17.806;2023-05-10T01:17:38;15.10;80.50
47168;DHT22;32931;47.778;17.806;2023-05-10T01:20:06;15.10;80.80
47168;DHT22;32931;47.778;17.806;2023-05-10T01:31:08;15.00;82.80
47168;DHT22;32931;47.778;17.806;2023-05-10T01:36:45;14.90;82.70
47168;DHT22;32931;47.778;17.806;2023-05-10T01:39:46;14.90;84.00
47168;DHT22;32931;47.778;17.806;2023-05-10T01:42:29;14.90;84.50
47168;DHT22;32931;47.778;17.806;2023-05-10T01:45:07;14.80;84.40
47168;DHT22;32931;47.778;17.806;2023-05-10T01:47:43;14.70;84.40
47168;DHT22;32931;47.778;17.806;2023-05-10T01:50:16;14.70;84.80
47168;DHT22;32931;47.778;17.806;2023-05-10T01:52:47;14.70;84.80
47168;DHT22;32931;47.778;17.806;2023-05-10T01:55:16;14.70;84.90
47168;DHT22;32931;47.778;17.806;2023-05-10T01:57:44;14.70;85.20
47168;DHT22;32931;47.778;17.806;2023-05-10T02:00:13;14.60;85.30
47168;DHT22;32931;47.778;17.806;2023-05-10T02:02:45;14.70;85.70
47168;DHT22;32931;47.778;17.806;2023-05-10T02:05:13;14.60;86.00
47168;DHT22;32931;47.778;17.806;2023-05-10T02:07:41;14.60;86.00
47168;DHT22;32931;47.778;17.806;2023-05-10T02:10:09;14.60;86.30
47168;DHT22;32931;47.778;17.806;2023-05-10T02:12:39;14.60;86.60
47168;DHT22;32931;47.778;17.806;2023-05-10T02:15:07;14.50;86.80
47168;DHT22;32931;47.778;17.806;2023-05-10T02:17:35;14.50;87.10
47168;DHT22;32931;47.778;17.806;2023-05-10T02:20:05;14.50;87.40
47168;DHT22;32931;47.778;17.806;2023-05-10T02:22:33;14.50;87.70
47168;DHT22;32931;47.778;17.806;2023-05-10T02:25:01;14.40;87.90
47168;DHT22;32931;47.778;17.806;2023-05-10T02:27:29;14.40;88.10
47168;DHT22;32931;47.778;17.806;2023-05-10T02:29:56;14.40;88.40
47168;DHT22;32931;47.778;17.806;2023-05-10T02:32:26;14.30;88.60
47168;DHT22;32931;47.778;17.806;2023-05-10T02:34:53;14.30;89.00
47168;DHT22;32931;47.778;17.806;2023-05-10T02:37:21;14.30;89.20
47168;DHT22;32931;47.778;17.806;2023-05-10T02:39:49;14.30;89.60
47168;DHT22;32931;47.778;17.806;2023-05-10T02:42:20;14.20;89.80
47168;DHT22;32931;47.778;17.806;2023-05-10T02:44:50;14.20;90.00
47168;DHT22;32931;47.778;17.806;2023-05-10T02:47:18;14.20;90.10
47168;DHT22;32931;47.778;17.806;2023-05-10T02:49:45;14.20;90.40
47168;DHT22;32931;47.778;17.806;2023-05-10T02:52:15;14.10;90.40
47168;DHT22;32931;47.778;17.806;2023-05-10T02:54:47;14.10;90.50
47168;DHT22;32931;47.778;17.806;2023-05-10T02:57:16;14.10;90.70
47168;DHT22;32931;47.778;17.806;2023-05-10T02:59:44;14.10;91.40
47168;DHT22;32931;47.778;17.806;2023-05-10T03:02:12;14.00;90.60
47168;DHT22;32931;47.778;17.806;2023-05-10T03:04:39;14.00;90.90
47168;DHT22;32931;47.778;17.806;2023-05-10T03:07:05;14.00;91.00
47168;DHT22;32931;47.778;17.806;2023-05-10T03:09:32;13.90;91.10
47168;DHT22;32931;47.778;17.806;2023-05-10T03:12:11;13.90;91.20
47168;DHT22;32931;47.778;17.806;2023-05-10T03:15:13;13.90;91.60
47168;DHT22;32931;47.778;17.806;2023-05-10T03:20:29;13.70;91.50
47168;DHT22;32931;47.778;17.806;2023-05-10T03:23:22;13.80;91.90
47168;DHT22;32931;47.778;17.806;2023-05-10T03:25:48;13.70;91.90
47168;DHT22;32931;47.778;17.806;2023-05-10T03:28:16;13.70;91.80
47168;DHT22;32931;47.778;17.806;2023-05-10T03:30:43;13.70;91.90
47168;DHT22;32931;47.778;17.806;2023-05-10T03:33:10;13.60;92.00
47168;DHT22;32931;47.778;17.806;2023-05-10T03:35:36;13.60;92.10
47168;DHT22;32931;47.778;17.806;2023-05-10T03:38:02;13.60;92.20
47168;DHT22;32931;47.778;17.806;2023-05-10T03:40:29;13.60;92.30
47168;DHT22;32931;47.778;17.806;2023-05-10T03:42:57;13.60;92.40
47168;DHT22;32931;47.778;17.806;2023-05-10T03:45:24;13.60;92.40
47168;DHT22;32931;47.778;17.806;2023-05-10T03:47:50;13.60;92.50
47168;DHT22;32931;47.778;17.806;2023-05-10T03:50:16;13.50;92.50
47168;DHT22;32931;47.778;17.806;2023-05-10T03:52:42;13.60;92.60
47168;DHT22;32931;47.778;17.806;2023-05-10T03:55:09;13.50;92.70
47168;DHT22;32931;47.778;17.806;2023-05-10T03:57:35;13.50;92.80
47168;DHT22;32931;47.778;17.806;2023-05-10T04:00:02;13.50;92.80
47168;DHT22;32931;47.778;17.806;2023-05-10T04:02:29;13.60;93.20
47168;DHT22;32931;47.778;17.806;2023-05-10T04:04:56;13.60;93.10
47168;DHT22;32931;47.778;17.806;2023-05-10T04:07:22;13.50;93.20
47168;DHT22;32931;47.778;17.806;2023-05-10T04:09:48;13.60;93.30
47168;DHT22;32931;47.778;17.806;2023-05-10T04:12:14;13.50;93.40
47168;DHT22;32931;47.778;17.806;2023-05-10T04:14:40;13.50;93.40
47168;DHT22;32931;47.778;17.806;2023-05-10T04:17:07;13.50;93.50
47168;DHT22;32931;47.778;17.806;2023-05-10T04:19:33;13.50;93.60
47168;DHT22;32931;47.778;17.806;2023-05-10T04:21:59;13.60;93.70
47168;DHT22;32931;47.778;17.806;2023-05-10T04:24:25;13.60;93.70
47168;DHT22;32931;47.778;17.806;2023-05-10T04:26:52;13.60;93.80
47168;DHT22;32931;47.778;17.806;2023-05-10T04:29:19;13.60;93.90
47168;DHT22;32931;47.778;17.806;2023-05-10T04:31:46;13.60;93.90
47168;DHT22;32931;47.778;17.806;2023-05-10T04:34:12;13.70;93.90
47168;DHT22;32931;47.778;17.806;2023-05-10T04:36:38;13.60;94.00
47168;DHT22;32931;47.778;17.806;2023-05-10T04:39:04;13.70;94.00
47168;DHT22;32931;47.778;17.806;2023-05-10T04:41:31;13.70;94.10
47168;DHT22;32931;47.778;17.806;2023-05-10T04:43:57;13.70;94.20
47168;DHT22;32931;47.778;17.806;2023-05-10T04:46:23;13.80;94.40
47168;DHT22;32931;47.778;17.806;2023-05-10T04:48:49;13.80;94.40
47168;DHT22;32931;47.778;17.806;2023-05-10T04:51:15;13.80;94.40
47168;DHT22;32931;47.778;17.806;2023-05-10T04:53:41;13.80;94.50
47168;DHT22;32931;47.778;17.806;2023-05-10T04:56:07;13.90;94.50
47168;DHT22;32931;47.778;17.806;2023-05-10T04:58:34;13.90;94.70
47168;DHT22;32931;47.778;17.806;2023-05-10T05:01:07;13.90;94.50
47168;DHT22;32931;47.778;17.806;2023-05-10T05:03:35;13.90;94.80
47168;DHT22;32931;47.778;17.806;2023-05-10T05:06:01;14.00;94.70
47168;DHT22;32931;47.778;17.806;2023-05-10T05:08:27;14.00;94.60
47168;DHT22;32931;47.778;17.806;2023-05-10T05:10:54;14.10;94.70
47168;DHT22;32931;47.778;17.806;2023-05-10T05:13:20;14.10;94.70
47168;DHT22;32931;47.778;17.806;2023-05-10T05:15:46;14.20;94.70
47168;DHT22;32931;47.778;17.806;2023-05-10T05:18:12;14.20;94.70
47168;DHT22;32931;47.778;17.806;2023-05-10T05:20:38;14.30;94.60
47168;DHT22;32931;47.778;17.806;2023-05-10T05:23:05;14.30;94.70
47168;DHT22;32931;47.778;17.806;2023-05-10T05:25:31;14.30;94.60
47168;DHT22;32931;47.778;17.806;2023-05-10T05:27:57;14.40;94.60
47168;DHT22;32931;47.778;17.806;2023-05-10T05:30:23;14.40;94.60
47168;DHT22;32931;47.778;17.806;2023-05-10T05:32:50;14.50;94.70
47168;DHT22;32931;47.778;17.806;2023-05-10T05:35:16;14.50;94.70
47168;DHT22;32931;47.778;17.806;2023-05-10T05:37:42;14.50;94.60
47168;DHT22;32931;47.778;17.806;2023-05-10T05:40:11;14.60;94.60
47168;DHT22;32931;47.778;17.806;2023-05-10T05:42:38;14.60;94.40
47168;DHT22;32931;47.778;17.806;2023-05-10T05:45:04;14.70;94.30
47168;DHT22;32931;47.778;17.806;2023-05-10T05:47:31;14.60;94.40
47168;DHT22;32931;47.778;17.806;2023-05-10T05:49:57;14.70;94.50
47168;DHT22;32931;47.778;17.806;2023-05-10T05:52:23;14.80;94.40
47168;DHT22;32931;47.778;17.806;2023-05-10T05:54:49;14.80;94.30
47168;DHT22;32931;47.778;17.806;2023-05-10T05:57:15;14.90;94.20
47168;DHT22;32931;47.778;17.806;2023-05-10T05:59:42;14.90;94.10
47168;DHT22;32931;47.778;17.806;2023-05-10T06:02:10;14.90;94.00
47168;DHT22;32931;47.778;17.806;2023-05-10T06:04:36;14.90;94.00
47168;DHT22;32931;47.778;17.806;2023-05-10T06:07:02;15.00;94.00
47168;DHT22;32931;47.778;17.806;2023-05-10T06:09:28;15.00;94.00
47168;DHT22;32931;47.778;17.806;2023-05-10T06:11:54;15.10;94.10
47168;DHT22;32931;47.778;17.806;2023-05-10T06:14:21;15.10;94.20
47168;DHT22;32931;47.778;17.806;2023-05-10T06:16:47;15.20;94.00
47168;DHT22;32931;47.778;17.806;2023-05-10T06:19:14;15.20;94.00
47168;DHT22;32931;47.778;17.806;2023-05-10T06:21:40;15.30;93.80
47168;DHT22;32931;47.778;17.806;2023-05-10T06:24:06;15.30;93.80
47168;DHT22;32931;47.778;17.806;2023-05-10T06:26:33;15.40;93.80
47168;DHT22;32931;47.778;17.806;2023-05-10T06:28:59;15.40;93.70
47168;DHT22;32931;47.778;17.806;2023-05-10T06:31:25;15.50;93.60
47168;DHT22;32931;47.778;17.806;2023-05-10T06:33:51;15.50;93.70
47168;DHT22;32931;47.778;17.806;2023-05-10T06:36:18;15.60;93.80
47168;DHT22;32931;47.778;17.806;2023-05-10T06:38:44;15.70;93.70
47168;DHT22;32931;47.778;17.806;2023-05-10T06:41:10;15.70;93.60
47168;DHT22;32931;47.778;17.806;2023-05-10T06:43:36;15.80;93.60
47168;DHT22;32931;47.778;17.806;2023-05-10T06:46:05;15.80;93.60
47168;DHT22;32931;47.778;17.806;2023-05-10T06:48:32;15.90;93.40
47168;DHT22;32931;47.778;17.806;2023-05-10T06:50:58;16.00;93.10
47168;DHT22;32931;47.778;17.806;2023-05-10T06:53:25;15.90;92.70
47168;DHT22;32931;47.778;17.806;2023-05-10T06:55:51;16.00;92.40
47168;DHT22;32931;47.778;17.806;2023-05-10T06:58:17;16.00;92.40
47168;DHT22;32931;47.778;17.806;2023-05-10T07:00:43;16.00;92.50
47168;DHT22;32931;47.778;17.806;2023-05-10T07:03:11;16.20;92.60
47168;DHT22;32931;47.778;17.806;2023-05-10T07:05:37;16.20;92.40
47168;DHT22;32931;47.778;17.806;2023-05-10T07:08:03;16.20;91.90
47168;DHT22;32931;47.778;17.806;2023-05-10T07:10:29;16.20;91.60
47168;DHT22;32931;47.778;17.806;2023-05-10T07:12:55;16.20;91.40
47168;DHT22;32931;47.778;17.806;2023-05-10T07:15:22;16.30;91.60
47168;DHT22;32931;47.778;17.806;2023-05-10T07:17:48;16.30;91.60
47168;DHT22;32931;47.778;17.806;2023-05-10T07:20:14;16.40;91.50
47168;DHT22;32931;47.778;17.806;2023-05-10T07:22:41;16.40;91.60
47168;DHT22;32931;47.778;17.806;2023-05-10T07:25:07;16.50;91.70
47168;DHT22;32931;47.778;17.806;2023-05-10T07:27:33;16.50;91.30
47168;DHT22;32931;47.778;17.806;2023-05-10T07:29:59;16.60;91.60
47168;DHT22;32931;47.778;17.806;2023-05-10T07:32:26;16.70;91.70
47168;DHT22;32931;47.778;17.806;2023-05-10T07:34:52;16.70;91.40
47168;DHT22;32931;47.778;17.806;2023-05-10T07:37:18;16.80;91.30
47168;DHT22;32931;47.778;17.806;2023-05-10T07:39:44;16.80;91.50
47168;DHT22;32931;47.778;17.806;2023-05-10T07:42:10;16.90;91.10
47168;DHT22;32931;47.778;17.806;2023-05-10T07:44:36;17.00;90.80
47168;DHT22;32931;47.778;17.806;2023-05-10T07:47:03;17.00;90.70
47168;DHT22;32931;47.778;17.806;2023-05-10T07:49:29;17.10;90.60
47168;DHT22;32931;47.778;17.806;2023-05-10T07:51:55;17.20;90.70
47168;DHT22;32931;47.778;17.806;2023-05-10T07:54:21;17.20;90.90
47168;DHT22;32931;47.778;17.806;2023-05-10T07:56:47;17.30;90.60
47168;DHT22;32931;47.778;17.806;2023-05-10T07:59:17;17.40;90.40
47168;DHT22;32931;47.778;17.806;2023-05-10T08:01:44;17.50;90.20
47168;DHT22;32931;47.778;17.806;2023-05-10T08:04:10;17.50;90.50
47168;DHT22;32931;47.778;17.806;2023-05-10T08:06:37;17.50;90.20
47168;DHT22;32931;47.778;17.806;2023-05-10T08:09:03;17.60;89.60
47168;DHT22;32931;47.778;17.806;2023-05-10T08:11:29;17.70;90.00
47168;DHT22;32931;47.778;17.806;2023-05-10T08:13:56;17.70;89.40
47168;DHT22;32931;47.778;17.806;2023-05-10T08:16:22;17.70;89.30
47168;DHT22;32931;47.778;17.806;2023-05-10T08:18:48;17.80;89.30
47168;DHT22;32931;47.778;17.806;2023-05-10T08:21:16;17.90;89.40
47168;DHT22;32931;47.778;17.806;2023-05-10T08:23:43;18.00;89.80
47168;DHT22;32931;47.778;17.806;2023-05-10T08:26:11;18.00;88.80
47168;DHT22;32931;47.778;17.806;2023-05-10T08:28:38;18.00;88.00
47168;DHT22;32931;47.778;17.806;2023-05-10T08:31:04;18.10;88.00
47168;DHT22;32931;47.778;17.806;2023-05-10T08:33:31;18.10;87.60
47168;DHT22;32931;47.778;17.806;2023-05-10T08:35:57;18.20;87.90
47168;DHT22;32931;47.778;17.806;2023-05-10T08:38:23;18.30;88.00
47168;DHT22;32931;47.778;17.806;2023-05-10T08:40:49;18.40;87.40
47168;DHT22;32931;47.778;17.806;2023-05-10T08:43:26;18.50;86.80
47168;DHT22;32931;47.778;17.806;2023-05-10T08:45:54;18.60;86.50
47168;DHT22;32931;47.778;17.806;2023-05-10T08:48:23;18.60;87.00
47168;DHT22;32931;47.778;17.806;2023-05-10T08:50:53;18.70;86.50
47168;DHT22;32931;47.778;17.806;2023-05-10T08:53:21;18.80;86.70
47168;DHT22;32931;47.778;17.806;2023-05-10T08:55:49;18.80;86.40
47168;DHT22;32931;47.778;17.806;2023-05-10T08:58:16;18.90;86.40
47168;DHT22;32931;47.778;17.806;2023-05-10T09:00:43;19.00;86.00
47168;DHT22;32931;47.778;17.806;2023-05-10T09:03:09;19.00;85.50
47168;DHT22;32931;47.778;17.806;2023-05-10T09:05:37;19.00;85.00
47168;DHT22;32931;47.778;17.806;2023-05-10T09:08:04;19.10;85.10
47168;DHT22;32931;47.778;17.806;2023-05-10T09:10:31;19.10;84.50
47168;DHT22;32931;47.778;17.806;2023-05-10T09:12:57;19.20;84.60
47168;DHT22;32931;47.778;17.806;2023-05-10T09:15:24;19.20;84.70
47168;DHT22;32931;47.778;17.806;2023-05-10T09:17:50;19.30;84.90
47168;DHT22;32931;47.778;17.806;2023-05-10T09:20:16;19.40;84.80
47168;DHT22;32931;47.778;17.806;2023-05-10T09:22:46;19.50;85.20
47168;DHT22;32931;47.778;17.806;2023-05-10T09:25:13;19.60;84.60
47168;DHT22;32931;47.778;17.806;2023-05-10T09:27:40;19.70;84.70
47168;DHT22;32931;47.778;17.806;2023-05-10T09:30:08;19.70;84.00
47168;DHT22;32931;47.778;17.806;2023-05-10T09:32:40;19.70;82.90
47168;DHT22;32931;47.778;17.806;2023-05-10T09:35:12;19.70;83.70
47168;DHT22;32931;47.778;17.806;2023-05-10T09:37:39;19.80;83.90
47168;DHT22;32931;47.778;17.806;2023-05-10T09:40:16;19.90;83.80
47168;DHT22;32931;47.778;17.806;2023-05-10T09:45:18;19.90;83.00
47168;DHT22;32931;47.778;17.806;2023-05-10T09:47:45;20.10;83.10
47168;DHT22;32931;47.778;17.806;2023-05-10T09:50:11;20.20;83.00
47168;DHT22;32931;47.778;17.806;2023-05-10T09:52:57;20.30;82.10
47168;DHT22;32931;47.778;17.806;2023-05-10T09:55:43;20.40;84.10
47168;DHT22;32931;47.778;17.806;2023-05-10T09:58:15;20.40;82.10
47168;DHT22;32931;47.778;17.806;2023-05-10T10:00:45;20.40;80.00
47168;DHT22;32931;47.778;17.806;2023-05-10T10:03:15;20.50;80.10
47168;DHT22;32931;47.778;17.806;2023-05-10T10:05:42;20.60;80.10
47168;DHT22;32931;47.778;17.806;2023-05-10T10:08:09;20.70;79.40
47168;DHT22;32931;47.778;17.806;2023-05-10T10:10:36;20.80;79.30
47168;DHT22;32931;47.778;17.806;2023-05-10T10:13:02;20.80;79.00
47168;DHT22;32931;47.778;17.806;2023-05-10T10:15:28;20.80;78.80
47168;DHT22;32931;47.778;17.806;2023-05-10T10:17:55;21.00;78.40
47168;DHT22;32931;47.778;17.806;2023-05-10T10:20:22;20.90;78.20
47168;DHT22;32931;47.778;17.806;2023-05-10T10:22:50;20.90;77.60
47168;DHT22;32931;47.778;17.806;2023-05-10T10:25:17;20.80;77.40
47168;DHT22;32931;47.778;17.806;2023-05-10T10:30:45;20.90;77.20
47168;DHT22;32931;47.778;17.806;2023-05-10T10:36:07;21.10;77.30
47168;DHT22;32931;47.778;17.806;2023-05-10T10:41:35;21.10;74.80
47168;DHT22;32931;47.778;17.806;2023-05-10T10:52:32;20.90;75.70
47168;DHT22;32931;47.778;17.806;2023-05-10T10:57:43;21.00;75.00
47168;DHT22;32931;47.778;17.806;2023-05-10T11:00:20;21.10;76.00
47168;DHT22;32931;47.778;17.806;2023-05-10T11:05:33;21.20;74.40
47168;DHT22;32931;47.778;17.806;2023-05-10T11:08:18;21.20;74.70
47168;DHT22;32931;47.778;17.806;2023-05-10T11:11:06;21.20;74.00
47168;DHT22;32931;47.778;17.806;2023-05-10T11:13:44;21.40;74.90
47168;DHT22;32931;47.778;17.806;2023-05-10T11:16:12;21.50;73.20
47168;DHT22;32931;47.778;17.806;2023-05-10T11:18:39;21.50;72.20
47168;DHT22;32931;47.778;17.806;2023-05-10T11:21:08;21.50;71.50
47168;DHT22;32931;47.778;17.806;2023-05-10T11:26:09;21.60;71.30
47168;DHT22;32931;47.778;17.806;2023-05-10T11:28:49;21.80;71.50
47168;DHT22;32931;47.778;17.806;2023-05-10T11:31:17;22.00;70.60
47168;DHT22;32931;47.778;17.806;2023-05-10T11:36:12;22.10;70.20
47168;DHT22;32931;47.778;17.806;2023-05-10T11:38:38;22.20;70.40
47168;DHT22;32931;47.778;17.806;2023-05-10T11:41:04;22.30;70.80
47168;DHT22;32931;47.778;17.806;2023-05-10T11:43:30;22.40;70.00
47168;DHT22;32931;47.778;17.806;2023-05-10T11:45:56;22.40;69.30
47168;DHT22;32931;47.778;17.806;2023-05-10T11:48:23;22.40;69.30
47168;DHT22;32931;47.778;17.806;2023-05-10T11:50:50;22.50;69.60
47168;DHT22;32931;47.778;17.806;2023-05-10T11:53:16;22.50;68.40
47168;DHT22;32931;47.778;17.806;2023-05-10T11:55:42;22.70;68.30
47168;DHT22;32931;47.778;17.806;2023-05-10T11:58:08;22.90;68.70
47168;DHT22;32931;47.778;17.806;2023-05-10T12:00:34;23.20;69.10
47168;DHT22;32931;47.778;17.806;2023-05-10T12:03:01;23.40;69.20
47168;DHT22;32931;47.778;17.806;2023-05-10T12:05:28;23.50;66.80
47168;DHT22;32931;47.778;17.806;2023-05-10T12:08:14;23.40;66.20
47168;DHT22;32931;47.778;17.806;2023-05-10T12:10:40;23.40;64.80
47168;DHT22;32931;47.778;17.806;2023-05-10T12:13:11;23.60;65.30
47168;DHT22;32931;47.778;17.806;2023-05-10T12:15:39;23.90;64.90
47168;DHT22;32931;47.778;17.806;2023-05-10T12:18:05;24.00;64.40
47168;DHT22;32931;47.778;17.806;2023-05-10T12:20:34;24.30;62.60
47168;DHT22;32931;47.778;17.806;2023-05-10T12:23:00;24.60;62.90
47168;DHT22;32931;47.778;17.806;2023-05-10T12:25:31;24.90;62.30
47168;DHT22;32931;47.778;17.806;2023-05-10T12:27:59;24.90;61.10
47168;DHT22;32931;47.778;17.806;2023-05-10T12:30:31;25.00;61.90
47168;DHT22;32931;47.778;17.806;2023-05-10T12:33:09;25.10;61.60
47168;DHT22;32931;47.778;17.806;2023-05-10T12:35:50;25.30;61.00
47168;DHT22;32931;47.778;17.806;2023-05-10T12:38:33;25.40;62.10
47168;DHT22;32931;47.778;17.806;2023-05-10T12:41:02;25.50;60.40
47168;DHT22;32931;47.778;17.806;2023-05-10T12:43:29;25.60;60.70
47168;DHT22;32931;47.778;17.806;2023-05-10T12:45:55;25.70;60.20
47168;DHT22;32931;47.778;17.806;2023-05-10T12:48:22;25.80;58.80
47168;DHT22;32931;47.778;17.806;2023-05-10T12:50:48;25.70;58.40
47168;DHT22;32931;47.778;17.806;2023-05-10T12:53:15;25.50;58.50
47168;DHT22;32931;47.778;17.806;2023-05-10T12:55:44;25.40;58.60
47168;DHT22;32931;47.778;17.806;2023-05-10T12:58:11;25.20;59.60
47168;DHT22;32931;47.778;17.806;2023-05-10T13:00:37;25.20;59.70
47168;DHT22;32931;47.778;17.806;2023-05-10T13:03:04;25.20;58.90
47168;DHT22;32931;47.778;17.806;2023-05-10T13:05:34;25.20;59.30
47168;DHT22;32931;47.778;17.806;2023-05-10T13:08:00;25.30;59.30
47168;DHT22;32931;47.778;17.806;2023-05-10T13:10:26;25.50;58.00
47168;DHT22;32931;47.778;17.806;2023-05-10T13:12:52;25.60;57.60
47168;DHT22;32931;47.778;17.806;2023-05-10T13:15:18;25.80;57.80
47168;DHT22;32931;47.778;17.806;2023-05-10T13:17:44;25.90;57.90
47168;DHT22;32931;47.778;17.806;2023-05-10T13:20:11;25.90;57.10
47168;DHT22;32931;47.778;17.806;2023-05-10T13:22:37;26.00;56.80
47168;DHT22;32931;47.778;17.806;2023-05-10T13:25:03;26.00;56.60
47168;DHT22;32931;47.778;17.806;2023-05-10T13:27:30;26.00;56.10
47168;DHT22;32931;47.778;17.806;2023-05-10T13:29:56;26.30;56.90
47168;DHT22;32931;47.778;17.806;2023-05-10T13:32:22;26.60;57.20
47168;DHT22;32931;47.778;17.806;2023-05-10T13:34:48;26.90;56.20
47168;DHT22;32931;47.778;17.806;2023-05-10T13:37:14;27.20;55.20
47168;DHT22;32931;47.778;17.806;2023-05-10T13:39:40;27.30;54.70
47168;DHT22;32931;47.778;17.806;2023-05-10T13:42:06;27.40;54.70
47168;DHT22;32931;47.778;17.806;2023-05-10T13:44:33;27.10;54.00
47168;DHT22;32931;47.778;17.806;2023-05-10T13:46:59;26.80;53.70
47168;DHT22;32931;47.778;17.806;2023-05-10T13:49:26;26.50;53.70
47168;DHT22;32931;47.778;17.806;2023-05-10T13:51:52;26.30;53.50
47168;DHT22;32931;47.778;17.806;2023-05-10T13:54:18;26.20;54.00
47168;DHT22;32931;47.778;17.806;2023-05-10T13:56:45;26.20;53.60
47168;DHT22;32931;47.778;17.806;2023-05-10T13:59:13;26.20;53.00
47168;DHT22;32931;47.778;17.806;2023-05-10T14:01:40;26.20;53.40
47168;DHT22;32931;47.778;17.806;2023-05-10T14:04:07;26.30;53.50
47168;DHT22;32931;47.778;17.806;2023-05-10T14:06:38;26.40;53.90
47168;DHT22;32931;47.778;17.806;2023-05-10T14:09:04;26.40;55.00
47168;DHT22;32931;47.778;17.806;2023-05-10T14:11:31;26.50;55.50
47168;DHT22;32931;47.778;17.806;2023-05-10T14:13:57;26.50;54.90
47168;DHT22;32931;47.778;17.806;2023-05-10T14:16:23;26.50;54.20
47168;DHT22;32931;47.778;17.806;2023-05-10T14:18:49;26.30;54.00
47168;DHT22;32931;47.778;17.806;2023-05-10T14:21:15;26.00;53.70
47168;DHT22;32931;47.778;17.806;2023-05-10T14:23:41;25.80;53.80
47168;DHT22;32931;47.778;17.806;2023-05-10T14:26:08;25.50;53.90
47168;DHT22;32931;47.778;17.806;2023-05-10T14:28:34;25.50;54.50
47168;DHT22;32931;47.778;17.806;2023-05-10T14:31:00;25.50;54.40
47168;DHT22;32931;47.778;17.806;2023-05-10T14:33:26;25.40;54.00
47168;DHT22;32931;47.778;17.806;2023-05-10T14:35:53;25.30;54.00
47168;DHT22;32931;47.778;17.806;2023-05-10T14:38:22;25.20;54.10
47168;DHT22;32931;47.778;17.806;2023-05-10T14:40:49;25.20;53.60
47168;DHT22;32931;47.778;17.806;2023-05-10T14:43:15;25.30;53.80
47168;DHT22;32931;47.778;17.806;2023-05-10T14:45:41;25.50;53.60
47168;DHT22;32931;47.778;17.806;2023-05-10T14:48:07;25.70;53.60
47168;DHT22;32931;47.778;17.806;2023-05-10T14:50:37;26.00;53.90
47168;DHT22;32931;47.778;17.806;2023-05-10T14:53:03;26.30;53.50
47168;DHT22;32931;47.778;17.806;2023-05-10T14:55:29;26.50;53.60
47168;DHT22;32931;47.778;17.806;2023-05-10T14:57:55;26.80;53.80
47168;DHT22;32931;47.778;17.806;2023-05-10T15:00:22;27.00;53.00
47168;DHT22;32931;47.778;17.806;2023-05-10T15:02:48;27.20;52.70
47168;DHT22;32931;47.778;17.806;2023-05-10T15:05:14;27.30;52.60
47168;DHT22;32931;47.778;17.806;2023-05-10T15:07:40;27.40;52.30
47168;DHT22;32931;47.778;17.806;2023-05-10T15:10:10;27.50;51.90
47168;DHT22;32931;47.778;17.806;2023-05-10T15:12:37;27.60;51.60
47168;DHT22;32931;47.778;17.806;2023-05-10T15:15:04;27.80;51.70
47168;DHT22;32931;47.778;17.806;2023-05-10T15:17:31;27.80;51.70
47168;DHT22;32931;47.778;17.806;2023-05-10T15:19:57;27.80;51.40
47168;DHT22;32931;47.778;17.806;2023-05-10T15:22:23;27.90;50.60
47168;DHT22;32931;47.778;17.806;2023-05-10T15:24:50;27.90;50.90
47168;DHT22;32931;47.778;17.806;2023-05-10T15:27:16;28.00;50.90
47168;DHT22;32931;47.778;17.806;2023-05-10T15:29:43;28.10;50.90
47168;DHT22;32931;47.778;17.806;2023-05-10T15:32:09;28.20;51.20
47168;DHT22;32931;47.778;17.806;2023-05-10T15:34:35;28.30;51.30
47168;DHT22;32931;47.778;17.806;2023-05-10T15:37:02;28.40;52.00
47168;DHT22;32931;47.778;17.806;2023-05-10T15:39:28;28.60;51.40
47168;DHT22;32931;47.778;17.806;2023-05-10T15:41:55;28.50;50.60
47168;DHT22;32931;47.778;17.806;2023-05-10T15:44:21;28.30;50.30
47168;DHT22;32931;47.778;17.806;2023-05-10T15:46:48;27.90;49.80
47168;DHT22;32931;47.778;17.806;2023-05-10T15:49:14;27.50;49.90
47168;DHT22;32931;47.778;17.806;2023-05-10T15:51:40;27.20;50.20
47168;DHT22;32931;47.778;17.806;2023-05-10T15:54:07;27.20;50.60
47168;DHT22;32931;47.778;17.806;2023-05-10T15:56:33;27.20;50.80
47168;DHT22;32931;47.778;17.806;2023-05-10T15:59:00;27.40;50.70
47168;DHT22;32931;47.778;17.806;2023-05-10T16:01:27;27.50;50.30
47168;DHT22;32931;47.778;17.806;2023-05-10T16:03:53;27.40;49.60